Time;durP1;ratioP1;P1;durP2;ratioP2;P2;SDS_P1;SDS_P2;PMS_P1;PMS_P2;Temp;Humidity;BMP_temperature;BMP_pressure;BME280_temperature;BME280_humidity;BME280_pressure;Samples;Min_cycle;Max_cycle;Signal;HPM_P1;HPM_P2
2023/09/21 00:00:24;;;;;;;8.70;5.47;;;;;;;21.22;78.47;100888.66;5050152;28;20029;-86
2023/09/21 00:02:51;;;;;;;9.32;6.13;;;;;;;21.20;78.45;100890.72;5050763;28;20032;-86
2023/09/21 00:05:21;;;;;;;7.82;5.97;;;;;;;21.21;78.54;100886.94;5050643;28;20037;-86
2023/09/21 00:07:47;;;;;;;12.23;5.70;;;;;;;21.14;78.58;100883.25;5050917;28;20025;-85
2023/09/21 00:10:12;;;;;;;8.23;5.82;;;;;;;21.03;78.97;100879.06;5050631;28;20386;-85
2023/09/21 00:12:39;;;;;;;17.13;5.97;;;;;;;21.05;79.08;100887.06;5051178;28;20112;-86
2023/09/21 00:15:06;;;;;;;27.83;7.30;;;;;;;20.92;79.25;100860.38;5056570;28;20499;-86
2023/09/21 00:17:35;;;;;;;19.40;6.18;;;;;;;21.00;79.25;100878.59;5060623;28;20087;-86
2023/09/21 00:20:10;;;;;;;17.38;6.13;;;;;;;21.01;79.08;100888.47;5061767;28;20036;-85
2023/09/21 00:22:35;;;;;;;12.30;6.10;;;;;;;20.96;79.19;100888.19;5054413;28;20033;-86
2023/09/21 00:25:09;;;;;;;11.63;6.57;;;;;;;20.87;79.76;100878.38;5057820;28;20027;-88
2023/09/21 00:27:35;;;;;;;17.27;5.38;;;;;;;20.88;79.72;100888.28;5057094;28;20036;-87
2023/09/21 00:30:05;;;;;;;12.52;5.88;;;;;;;20.84;79.88;100882.31;5059761;28;20095;-87
2023/09/21 00:32:31;;;;;;;13.95;6.88;;;;;;;20.62;79.94;100858.59;5061662;28;20083;-87
2023/09/21 00:34:56;;;;;;;15.15;5.90;;;;;;;20.82;80.04;100883.56;5061996;28;20084;-83
2023/09/21 00:37:23;;;;;;;14.00;6.45;;;;;;;20.82;80.32;100880.81;5062071;28;20035;-85
2023/09/21 00:39:49;;;;;;;11.23;6.28;;;;;;;20.81;80.28;100890.06;5061119;28;20064;-85
2023/09/21 00:42:14;;;;;;;19.27;7.35;;;;;;;20.80;80.23;100888.34;5059003;28;20115;-86
2023/09/21 00:44:40;;;;;;;8.80;5.93;;;;;;;20.75;80.45;100885.31;5056710;28;20021;-87
2023/09/21 00:47:06;;;;;;;16.98;6.65;;;;;;;20.80;80.71;100888.34;5058670;28;20029;-85
2023/09/21 00:49:32;;;;;;;19.60;7.55;;;;;;;20.76;80.26;100884.28;5051709;28;20125;-85
2023/09/21 00:51:58;;;;;;;17.23;6.18;;;;;;;20.82;79.98;100892.63;5050572;28;20128;-87
2023/09/21 00:54:25;;;;;;;18.30;5.97;;;;;;;20.74;79.93;100883.59;5050681;28;20029;-86
2023/09/21 00:56:54;;;;;;;14.82;5.93;;;;;;;20.75;79.73;100882.59;5050899;28;20029;-88
2023/09/21 00:59:21;;;;;;;17.55;6.70;;;;;;;20.70;79.97;100885.03;5050571;28;20036;-86
2023/09/21 01:01:48;;;;;;;16.13;6.78;;;;;;;20.70;80.04;100883.16;5051142;28;20552;-86
2023/09/21 01:04:14;;;;;;;17.52;7.07;;;;;;;20.63;80.16;100885.78;5051295;28;20495;-86
2023/09/21 01:06:41;;;;;;;14.20;6.35;;;;;;;20.57;80.31;100878.31;5051180;28;20025;-86
2023/09/21 01:09:12;;;;;;;14.45;5.13;;;;;;;20.56;80.40;100881.19;5050829;28;20025;-86
2023/09/21 01:11:38;;;;;;;13.65;6.15;;;;;;;20.58;80.64;100876.38;5051062;28;20029;-87
2023/09/21 01:14:04;;;;;;;14.55;6.38;;;;;;;20.55;80.63;100880.34;5050113;28;20036;-87
2023/09/21 01:16:30;;;;;;;6.75;4.93;;;;;;;20.53;80.71;100882.44;5015145;28;20037;-87
2023/09/21 01:18:55;;;;;;;8.98;5.63;;;;;;;20.35;80.75;100851.84;5050053;28;20056;-84
2023/09/21 01:21:35;;;;;;;12.45;5.85;;;;;;;20.34;80.81;100858.31;5049780;28;20024;-85
2023/09/21 01:24:00;;;;;;;10.88;5.00;;;;;;;20.52;80.58;100875.25;5050873;28;20102;-86
2023/09/21 01:26:26;;;;;;;7.40;6.05;;;;;;;20.42;80.86;100876.53;5022713;28;20049;-82
2023/09/21 01:28:52;;;;;;;10.80;5.95;;;;;;;20.33;80.96;100870.31;5073666;28;20055;-85
2023/09/21 01:31:18;;;;;;;27.98;6.85;;;;;;;20.33;81.35;100869.44;5073589;28;20036;-82
2023/09/21 01:33:44;;;;;;;15.90;5.80;;;;;;;20.32;81.51;100868.59;5074632;28;20117;-80
2023/09/21 01:36:12;;;;;;;11.70;6.18;;;;;;;20.28;81.75;100867.25;5074708;28;20357;-82
2023/09/21 01:38:38;;;;;;;10.48;6.25;;;;;;;20.25;81.97;100864.84;5074850;28;20037;-82
2023/09/21 01:41:06;;;;;;;22.02;7.15;;;;;;;20.07;82.29;100847.91;5077734;28;20016;-81
2023/09/21 01:43:32;;;;;;;21.95;6.03;;;;;;;20.21;81.94;100857.22;5067769;28;20040;-86
2023/09/21 01:45:58;;;;;;;21.33;6.97;;;;;;;20.24;81.87;100871.34;5054916;28;20147;-87
2023/09/21 01:48:23;;;;;;;17.40;6.10;;;;;;;20.16;82.36;100868.66;5054716;28;20495;-86
2023/09/21 01:50:50;;;;;;;17.63;5.85;;;;;;;20.14;82.53;100864.41;5055091;28;20021;-87
2023/09/21 01:53:21;;;;;;;17.65;5.22;;;;;;;20.18;82.56;100863.88;5054878;28;20033;-86
2023/09/21 01:55:49;;;;;;;16.52;6.35;;;;;;;20.15;82.64;100858.75;5060997;28;20032;-85
2023/09/21 01:58:17;;;;;;;18.63;5.85;;;;;;;20.15;82.80;100864.22;5054244;28;20091;-85
2023/09/21 02:00:46;;;;;;;14.38;5.88;;;;;;;20.16;82.82;100856.88;5053439;28;20496;-87
2023/09/21 02:03:13;;;;;;;14.95;5.57;;;;;;;20.18;82.61;100866.63;5052773;28;20032;-87
2023/09/21 02:05:42;;;;;;;20.52;5.53;;;;;;;20.12;82.52;100852.84;5053522;28;20470;-87
2023/09/21 02:08:10;;;;;;;26.42;6.88;;;;;;;19.94;82.79;100836.72;5053147;28;20561;-87
2023/09/21 02:10:38;;;;;;;19.95;6.18;;;;;;;20.03;82.85;100852.00;5052347;28;20025;-85
2023/09/21 02:13:07;;;;;;;17.98;6.00;;;;;;;20.10;83.07;100858.47;5052323;28;20443;-86
2023/09/21 02:15:38;;;;;;;27.52;6.45;;;;;;;20.09;82.97;100856.75;5052078;28;20068;-87
2023/09/21 02:18:04;;;;;;;12.52;5.60;;;;;;;19.98;82.73;100829.88;5052532;28;20029;-86
2023/09/21 02:20:31;;;;;;;18.70;6.65;;;;;;;20.15;82.93;100857.94;5052643;28;20025;-85
2023/09/21 02:22:58;;;;;;;11.77;6.55;;;;;;;20.02;82.91;100828.47;5052737;28;20025;-85
2023/09/21 02:25:25;;;;;;;13.02;6.22;;;;;;;20.21;82.60;100849.88;5052222;28;20025;-84
2023/09/21 02:27:51;;;;;;;25.92;6.75;;;;;;;20.16;82.54;100844.06;5052433;28;20082;-82
2023/09/21 02:30:21;;;;;;;20.15;7.18;;;;;;;20.20;82.41;100847.31;5052724;28;20076;-87
2023/09/21 02:32:49;;;;;;;14.88;6.10;;;;;;;20.16;82.32;100846.81;5052394;28;20036;-88
2023/09/21 02:35:16;;;;;;;10.70;5.88;;;;;;;20.18;82.11;100839.31;5053378;28;20025;-86
2023/09/21 02:37:46;;;;;;;26.50;7.15;;;;;;;20.20;82.05;100848.16;5052220;28;20124;-87
2023/09/21 02:40:16;;;;;;;23.35;6.38;;;;;;;20.13;81.87;100847.16;5052255;28;20021;-85
2023/09/21 02:42:46;;;;;;;16.98;7.55;;;;;;;20.15;81.83;100855.19;5052061;28;20045;-87
2023/09/21 02:45:12;;;;;;;26.52;7.65;;;;;;;20.10;82.13;100855.72;5052030;28;20017;-86
2023/09/21 02:47:39;;;;;;;14.50;5.53;;;;;;;20.08;82.08;100866.00;5017214;28;20068;-88
2023/09/21 02:50:14;;;;;;;16.88;6.68;;;;;;;20.09;82.19;100860.34;5051888;28;20508;-86
2023/09/21 02:52:46;;;;;;;12.15;6.30;;;;;;;20.04;82.17;100859.19;5052686;28;20025;-85
2023/09/21 02:55:12;;;;;;;;;;;;;;;20.04;82.29;100870.09;5052338;28;20028;-85
2023/09/21 02:57:38;;;;;;;12.90;6.03;;;;;;;19.97;82.58;100871.84;5052035;28;19920;-87
2023/09/21 03:00:14;;;;;;;30.98;10.52;;;;;;;19.94;82.97;100872.19;5032943;28;20048;-85
2023/09/21 03:02:39;;;;;;;22.80;7.80;;;;;;;19.88;83.25;100862.84;5052098;28;20075;-87
2023/09/21 03:05:10;;;;;;;13.80;7.47;;;;;;;19.71;83.53;100827.66;5052140;28;20040;-87
2023/09/21 03:07:38;;;;;;;28.20;16.02;;;;;;;19.87;83.99;100858.44;5053849;28;20100;-84
2023/09/21 03:10:09;;;;;;;21.90;7.53;;;;;;;19.90;84.23;100857.22;5053085;28;20044;-88
2023/09/21 03:12:36;;;;;;;15.10;7.38;;;;;;;19.86;84.56;100848.53;5052242;28;20029;-86
2023/09/21 03:15:06;;;;;;;20.40;7.00;;;;;;;19.92;84.40;100856.00;5052792;28;20469;-87
2023/09/21 03:17:33;;;;;;;26.02;8.98;;;;;;;20.00;84.55;100860.56;5051589;28;20025;-87
2023/09/21 03:20:11;;;;;;;23.63;8.50;;;;;;;19.92;84.20;100855.16;5051814;28;20059;-87
2023/09/21 03:22:37;;;;;;;20.35;8.13;;;;;;;19.84;84.03;100841.56;5053292;28;20090;-87
2023/09/21 03:25:03;;;;;;;30.45;7.68;;;;;;;19.88;83.95;100831.97;5057079;28;20028;-85
2023/09/21 03:27:29;;;;;;;25.45;10.35;;;;;;;20.06;84.03;100868.03;5068042;28;20063;-87
2023/09/21 03:29:54;;;;;;;20.65;8.32;;;;;;;20.02;84.41;100872.19;5053094;28;20469;-84
2023/09/21 03:32:20;;;;;;;27.85;11.80;;;;;;;20.08;84.52;100871.44;5051588;28;20098;-86
2023/09/21 03:34:46;;;;;;;27.63;11.48;;;;;;;19.87;84.19;100835.75;5050910;28;20036;-85
2023/09/21 03:37:13;;;;;;;33.28;11.60;;;;;;;19.98;84.60;100859.91;5052045;28;20091;-84
2023/09/21 03:39:39;;;;;;;43.63;12.18;;;;;;;20.00;84.63;100857.84;5035540;28;20475;-87
2023/09/21 03:42:05;;;;;;;28.50;11.45;;;;;;;19.75;84.61;100831.72;5050725;28;20048;-87
2023/09/21 03:44:30;;;;;;;32.38;10.85;;;;;;;19.73;84.85;100822.84;5050588;28;20531;-85
2023/09/21 03:46:56;;;;;;;28.95;9.82;;;;;;;19.93;84.75;100856.88;5050945;28;20059;-86
2023/09/21 03:49:21;;;;;;;36.63;10.98;;;;;;;19.91;84.36;100859.75;5051184;28;20028;-85
2023/09/21 03:51:47;;;;;;;39.20;9.95;;;;;;;19.95;84.34;100865.72;5051009;28;20029;-85
2023/09/21 03:54:16;;;;;;;47.03;9.82;;;;;;;19.90;84.29;100858.09;5050364;28;20419;-87
2023/09/21 03:56:42;;;;;;;57.30;10.73;;;;;;;19.86;84.75;100854.00;5050226;28;20036;-82
2023/09/21 03:59:07;;;;;;;50.33;11.25;;;;;;;19.90;85.07;100870.88;5050097;28;20025;-83
2023/09/21 04:01:36;;;;;;;56.47;10.93;;;;;;;19.89;85.08;100855.53;5048524;28;20044;-82
2023/09/21 04:04:07;;;;;;;89.15;12.88;;;;;;;19.74;85.00;100838.22;5049939;28;20554;-83
2023/09/21 04:06:33;;;;;;;90.03;16.50;;;;;;;19.93;85.21;100868.66;5017107;28;20044;-88
2023/09/21 04:08:59;;;;;;;74.60;13.00;;;;;;;19.88;85.33;100849.19;5057234;28;20365;-90
2023/09/21 04:11:28;;;;;;;102.25;13.13;;;;;;;19.95;85.25;100861.13;5051410;28;20036;-89
2023/09/21 04:13:53;;;;;;;78.47;14.07;;;;;;;20.02;85.29;100869.44;4998480;28;20167;-89
2023/09/21 04:16:18;;;;;;;65.15;13.02;;;;;;;19.83;85.19;100837.13;5050115;28;20025;-80
2023/09/21 04:18:44;;;;;;;99.88;15.05;;;;;;;20.06;84.97;100870.75;5050352;28;20032;-81
2023/09/21 04:21:09;;;;;;;73.82;13.43;;;;;;;20.11;84.96;100865.63;5050259;28;20149;-81
2023/09/21 04:23:35;;;;;;;72.35;13.90;;;;;;;20.15;84.47;100860.66;5050194;28;20116;-81
2023/09/21 04:26:00;;;;;;;63.22;13.38;;;;;;;20.16;85.04;100863.19;5049929;28;20037;-80
2023/09/21 04:28:26;;;;;;;83.18;16.02;;;;;;;20.07;85.14;100842.44;5050507;28;20025;-85
2023/09/21 04:30:51;;;;;;;76.07;12.93;;;;;;;20.08;85.03;100838.69;5072391;28;20037;-82
2023/09/21 04:33:16;;;;;;;73.82;14.48;;;;;;;20.36;85.10;100869.06;5074581;28;20048;-80
2023/09/21 04:35:42;;;;;;;77.38;15.27;;;;;;;20.26;84.80;100838.41;5075345;28;20023;-86
2023/09/21 04:38:08;;;;;;;77.13;13.65;;;;;;;20.22;84.59;100826.09;5074912;28;20057;-82
2023/09/21 04:40:34;;;;;;;102.07;17.55;;;;;;;20.57;84.41;100878.31;5052927;28;20032;-82
2023/09/21 04:42:59;;;;;;;86.15;14.55;;;;;;;20.67;84.38;100882.66;5052106;28;20131;-82
2023/09/21 04:45:26;;;;;;;143.77;17.45;;;;;;;20.72;83.83;100874.75;5052024;28;20028;-85
2023/09/21 04:48:00;;;;;;;64.57;14.13;;;;;;;20.76;83.60;100876.09;5052074;28;20029;-83
2023/09/21 04:50:26;;;;;;;123.50;19.85;;;;;;;20.57;83.33;100856.44;5053902;28;20075;-82
2023/09/21 04:52:51;;;;;;;96.30;17.40;;;;;;;20.76;83.26;100870.63;5050487;28;20045;-81
2023/09/21 04:55:17;;;;;;;101.18;16.13;;;;;;;20.87;83.33;100884.69;5050548;28;20025;-82
2023/09/21 04:57:43;;;;;;;106.70;17.42;;;;;;;20.85;83.30;100869.50;5049799;28;20403;-83
2023/09/21 05:00:14;;;;;;;96.25;15.88;;;;;;;21.00;82.88;100886.81;5050745;28;20055;-83
2023/09/21 05:02:40;;;;;;;108.20;16.92;;;;;;;21.05;82.48;100881.59;5049706;28;20100;-83
2023/09/21 05:05:06;;;;;;;88.15;15.38;;;;;;;20.87;82.44;100834.63;5049643;28;20037;-83
2023/09/21 05:07:34;;;;;;;83.40;14.75;;;;;;;21.20;82.22;100878.91;5049576;28;20025;-83
2023/09/21 05:09:59;;;;;;;64.80;12.18;;;;;;;21.21;82.11;100859.59;5049196;28;20040;-82
2023/09/21 05:12:27;;;;;;;72.80;15.23;;;;;;;21.21;81.97;100853.28;5051860;28;20028;-83
2023/09/21 05:14:53;;;;;;;71.22;15.38;;;;;;;21.35;81.62;100861.47;5052455;28;20079;-82
2023/09/21 05:17:18;;;;;;;88.75;15.10;;;;;;;21.49;81.47;100863.38;5053019;28;20130;-84
2023/09/21 05:19:44;;;;;;;103.10;15.85;;;;;;;21.47;81.13;100845.41;5053392;28;20029;-82
2023/09/21 05:22:09;;;;;;;95.22;15.25;;;;;;;21.70;81.01;100863.44;5053348;28;20036;-83
2023/09/21 05:24:36;;;;;;;98.95;16.50;;;;;;;21.87;80.73;100871.41;5052899;28;20036;-83
2023/09/21 05:27:02;;;;;;;103.90;17.15;;;;;;;21.93;80.34;100866.06;5053308;28;20033;-83
2023/09/21 05:29:28;;;;;;;82.07;14.15;;;;;;;21.87;80.01;100842.16;5053423;28;20025;-84
2023/09/21 05:31:54;;;;;;;82.13;15.15;;;;;;;22.15;79.80;100875.16;5053139;28;20035;-83
2023/09/21 05:34:20;;;;;;;108.47;17.00;;;;;;;22.24;79.57;100863.88;5052534;28;20108;-83
2023/09/21 05:36:47;;;;;;;104.55;15.73;;;;;;;22.35;79.07;100868.03;5052653;28;20087;-83
2023/09/21 05:39:16;;;;;;;77.57;13.88;;;;;;;22.46;78.75;100872.13;5052650;28;20029;-82
2023/09/21 05:41:49;;;;;;;62.17;14.57;;;;;;;22.44;78.50;100850.41;5052137;28;20520;-82
2023/09/21 05:44:15;;;;;;;46.45;10.98;;;;;;;22.59;77.73;100862.13;5052476;28;20021;-83
2023/09/21 05:46:41;;;;;;;34.85;8.70;;;;;;;22.55;77.40;100849.84;5052830;28;20025;-83
2023/09/21 05:49:09;;;;;;;57.50;12.35;;;;;;;22.80;76.66;100871.41;5052344;28;20035;-83
2023/09/21 05:51:39;;;;;;;67.25;11.40;;;;;;;22.86;76.59;100873.34;5033751;28;20140;-82
2023/09/21 05:54:05;;;;;;;61.03;12.25;;;;;;;22.82;76.09;100859.19;5052729;28;20036;-83
2023/09/21 05:56:32;;;;;;;131.00;15.85;;;;;;;22.99;76.07;100870.72;5052694;28;20036;-83
2023/09/21 05:58:59;;;;;;;49.53;10.23;;;;;;;23.05;75.73;100868.03;5052631;28;20021;-83
2023/09/21 06:01:25;;;;;;;20.58;6.47;;;;;;;23.11;75.08;100871.88;5052342;28;20028;-83
2023/09/21 06:03:52;;;;;;;22.50;6.55;;;;;;;23.14;74.65;100871.47;5052512;28;20127;-81
2023/09/21 06:06:19;;;;;;;26.85;6.70;;;;;;;23.08;75.02;100875.00;5052236;28;20063;-83
2023/09/21 06:08:45;;;;;;;25.30;5.85;;;;;;;22.97;75.25;100853.59;5052577;28;20556;-84
2023/09/21 06:11:11;;;;;;;27.02;5.75;;;;;;;22.93;75.57;100833.13;5052160;28;20116;-82
2023/09/21 06:13:36;;;;;;;148.95;20.45;;;;;;;23.09;74.91;100869.31;5051734;28;20029;-82
2023/09/21 06:16:02;;;;;;;11.50;5.20;;;;;;;23.15;74.20;100884.13;5052476;28;20393;-84
2023/09/21 06:18:29;;;;;;;18.40;4.82;;;;;;;23.18;74.17;100879.09;5051547;28;20021;-82
2023/09/21 06:20:55;;;;;;;14.27;5.00;;;;;;;23.23;74.02;100884.00;5051810;28;20067;-82
2023/09/21 06:23:21;;;;;;;15.95;5.28;;;;;;;23.10;73.39;100864.69;5051816;28;20409;-83
2023/09/21 06:25:48;;;;;;;20.00;5.65;;;;;;;23.16;73.88;100891.31;5033505;28;20447;-84
2023/09/21 06:28:15;;;;;;;10.05;4.97;;;;;;;22.97;73.90;100859.94;5052823;28;20022;-83
2023/09/21 06:30:41;;;;;;;17.20;4.80;;;;;;;23.19;74.20;100889.03;5034900;28;20081;-83
2023/09/21 06:33:07;;;;;;;12.13;4.97;;;;;;;23.05;73.45;100868.03;5052804;28;20033;-84
2023/09/21 06:35:33;;;;;;;28.15;10.05;;;;;;;23.23;73.57;100897.72;5052400;28;20043;-83
2023/09/21 06:37:59;;;;;;;18.13;6.00;;;;;;;23.24;73.01;100902.13;5052274;28;20025;-84
2023/09/21 06:40:25;;;;;;;9.00;4.30;;;;;;;23.23;73.44;100897.72;5052295;28;20114;-82
2023/09/21 06:42:51;;;;;;;14.82;5.25;;;;;;;23.20;73.71;100889.88;5051539;28;20552;-82
2023/09/21 06:45:17;;;;;;;13.63;5.43;;;;;;;23.19;72.69;100901.91;5051516;28;20028;-82
2023/09/21 06:47:42;;;;;;;9.75;3.65;;;;;;;23.06;72.88;100885.31;5052045;28;20094;-82
2023/09/21 06:50:14;;;;;;;14.13;5.38;;;;;;;23.06;72.89;100891.66;5051605;28;20120;-83
2023/09/21 06:52:40;;;;;;;15.57;5.13;;;;;;;23.08;73.50;100905.19;5051563;28;20032;-84
2023/09/21 06:55:06;;;;;;;16.00;4.80;;;;;;;23.03;73.34;100892.06;5051310;28;20086;-83
2023/09/21 06:57:34;;;;;;;95.90;13.85;;;;;;;23.10;73.10;100905.84;5033221;28;20408;-84
2023/09/21 07:00:00;;;;;;;13.43;4.63;;;;;;;23.07;73.45;100904.34;5050916;28;20442;-83
2023/09/21 07:02:26;;;;;;;6.18;3.70;;;;;;;22.97;73.26;100875.53;5050589;28;20028;-84
2023/09/21 07:04:52;;;;;;;11.38;4.45;;;;;;;23.18;73.44;100906.53;5051023;28;20435;-82
2023/09/21 07:07:18;;;;;;;34.10;5.50;;;;;;;23.16;73.27;100910.53;5051291;28;20043;-83
2023/09/21 07:09:44;;;;;;;13.45;4.85;;;;;;;23.21;73.50;100899.78;5033334;28;20455;-83
2023/09/21 07:12:11;;;;;;;8.55;3.83;;;;;;;23.25;72.78;100906.59;5051123;28;20513;-82
2023/09/21 07:14:36;;;;;;;13.57;5.47;;;;;;;23.33;72.74;100911.94;5050944;28;20075;-83
2023/09/21 07:17:05;;;;;;;15.05;4.00;;;;;;;23.26;72.85;100891.81;5050263;28;20432;-84
2023/09/21 07:19:31;;;;;;;20.00;6.03;;;;;;;23.46;72.44;100902.94;5015431;28;20029;-82
2023/09/21 07:21:57;;;;;;;27.30;5.90;;;;;;;23.67;72.32;100914.69;5050861;28;20106;-83
2023/09/21 07:24:22;;;;;;;16.95;4.70;;;;;;;23.83;72.15;100917.13;5050707;28;20530;-84
2023/09/21 07:26:49;;;;;;;16.13;4.00;;;;;;;23.93;71.12;100921.38;5049604;28;20037;-83
2023/09/21 07:29:14;;;;;;;15.02;4.90;;;;;;;23.96;70.98;100912.72;5050335;28;20083;-84
2023/09/21 07:31:40;;;;;;;15.35;5.55;;;;;;;24.06;70.50;100910.47;5050621;28;20043;-82
2023/09/21 07:34:06;;;;;;;18.27;5.00;;;;;;;24.10;70.03;100917.22;5050462;28;20021;-83
2023/09/21 07:36:35;;;;;;;13.45;4.90;;;;;;;24.10;69.79;100915.31;5032827;28;20032;-84
2023/09/21 07:39:03;;;;;;;11.10;4.47;;;;;;;24.18;69.56;100919.84;5048747;28;20033;-84
2023/09/21 07:41:29;;;;;;;20.73;4.38;;;;;;;24.19;69.56;100927.00;5051937;28;20041;-83
2023/09/21 07:43:54;;;;;;;12.90;4.18;;;;;;;24.08;69.46;100900.09;5055211;28;20028;-83
2023/09/21 07:46:20;;;;;;;12.75;4.68;;;;;;;24.17;68.40;100909.88;5054540;28;20111;-83
2023/09/21 07:48:48;;;;;;;12.48;4.18;;;;;;;23.97;69.67;100929.03;5056368;28;20542;-82
2023/09/21 07:51:13;;;;;;;7.65;3.30;;;;;;;24.07;69.89;100917.63;5053814;28;20068;-83
2023/09/21 07:53:40;;;;;;;14.00;4.57;;;;;;;24.06;69.87;100915.94;5050928;28;20125;-82
2023/09/21 07:56:06;;;;;;;6.65;3.17;;;;;;;24.21;69.21;100916.66;5051025;28;20029;-83
2023/09/21 07:58:31;;;;;;;16.02;3.88;;;;;;;24.21;69.68;100913.94;5050052;28;20033;-84
2023/09/21 08:00:57;;;;;;;13.43;3.70;;;;;;;24.30;69.58;100910.78;5050106;28;20097;-82
2023/09/21 08:03:26;;;;;;;9.10;3.80;;;;;;;24.40;69.42;100923.28;5049731;28;20118;-83
2023/09/21 08:05:55;;;;;;;17.42;3.85;;;;;;;24.35;69.36;100919.25;4999419;28;20044;-83
2023/09/21 08:08:23;;;;;;;12.32;4.85;;;;;;;24.39;69.01;100911.44;5049760;28;20029;-82
2023/09/21 08:10:52;;;;;;;17.65;4.13;;;;;;;24.46;69.51;100917.81;4997994;28;20041;-84
2023/09/21 08:13:18;;;;;;;10.13;3.75;;;;;;;24.38;69.58;100915.22;5049576;28;20074;-84
2023/09/21 08:15:43;;;;;;;13.30;4.20;;;;;;;24.35;70.04;100907.41;5049978;28;20060;-81
2023/09/21 08:18:10;;;;;;;24.20;6.32;;;;;;;24.42;70.23;100916.53;5049696;28;20035;-82
2023/09/21 08:20:39;;;;;;;16.33;4.25;;;;;;;24.23;68.07;100917.31;5049492;28;20550;-83
2023/09/21 08:23:08;;;;;;;7.00;3.67;;;;;;;24.13;69.75;100906.69;5049451;28;20090;-82
2023/09/21 08:25:35;;;;;;;9.43;3.70;;;;;;;24.21;69.83;100916.66;5050000;28;20025;-83
2023/09/21 08:28:05;;;;;;;21.17;5.07;;;;;;;24.29;70.94;100910.97;5049989;28;20437;-82
2023/09/21 08:30:31;;;;;;;19.98;5.00;;;;;;;24.41;71.50;100920.31;5050062;28;20039;-82
2023/09/21 08:32:57;;;;;;;11.60;4.05;;;;;;;24.22;71.42;100886.22;5049315;28;20467;-83
2023/09/21 08:35:23;;;;;;;14.05;3.90;;;;;;;24.28;71.17;100906.53;5049337;28;20437;-84
2023/09/21 08:37:50;;;;;;;11.13;4.80;;;;;;;24.20;71.75;100898.47;5049444;28;20060;-84
2023/09/21 08:40:20;;;;;;;8.82;4.35;;;;;;;24.24;73.12;100903.38;5030250;28;20075;-83
2023/09/21 08:42:51;;;;;;;18.58;5.38;;;;;;;24.41;73.36;100903.81;5049121;28;20493;-84
2023/09/21 08:45:19;;;;;;;14.82;4.40;;;;;;;24.31;71.87;100864.91;5049561;28;20044;-82
2023/09/21 08:47:46;;;;;;;77.90;10.77;;;;;;;24.55;71.28;100896.44;5049322;28;20033;-82
2023/09/21 08:50:13;;;;;;;14.10;4.90;;;;;;;24.68;71.11;100905.56;5001662;28;20044;-82
2023/09/21 08:52:41;;;;;;;41.08;7.78;;;;;;;24.77;70.42;100904.28;5053541;28;20400;-83
2023/09/21 08:55:10;;;;;;;10.48;4.60;;;;;;;24.67;69.16;100894.78;5053042;28;20021;-82
2023/09/21 08:57:36;;;;;;;10.43;4.53;;;;;;;24.57;70.42;100891.56;5003338;28;20136;-83
2023/09/21 09:00:08;;;;;;;18.00;4.57;;;;;;;24.60;71.28;100902.16;5053410;28;20048;-83
2023/09/21 09:02:35;;;;;;;5.90;3.67;;;;;;;24.77;70.51;100896.03;5053614;28;20031;-83
2023/09/21 09:05:04;;;;;;;21.83;4.82;;;;;;;24.82;70.08;100889.94;5001708;28;20079;-84
2023/09/21 09:07:40;;;;;;;23.42;6.25;;;;;;;25.01;70.56;100893.75;5053510;28;20032;-83
2023/09/21 09:10:07;;;;;;;9.07;3.97;;;;;;;24.88;67.54;100895.47;5053614;28;20040;-83
2023/09/21 09:12:32;;;;;;;11.23;4.32;;;;;;;24.76;68.36;100880.59;5034331;28;20040;-84
2023/09/21 09:15:02;;;;;;;8.85;3.67;;;;;;;24.90;68.85;100892.47;5052865;28;20430;-82
2023/09/21 09:17:31;;;;;;;79.35;11.98;;;;;;;24.96;69.13;100888.03;5053439;28;20078;-84
2023/09/21 09:20:02;;;;;;;15.30;3.33;;;;;;;24.89;68.40;100899.06;5054340;28;20037;-84
2023/09/21 09:22:31;;;;;;;25.85;5.28;;;;;;;24.80;70.16;100876.34;5054578;28;20059;-84
2023/09/21 09:25:00;;;;;;;11.07;4.38;;;;;;;24.75;70.09;100856.91;5053246;28;20056;-83
2023/09/21 09:27:26;;;;;;;5.50;3.25;;;;;;;24.94;68.04;100887.41;5053604;28;20135;-83
2023/09/21 09:29:52;;;;;;;10.75;5.63;;;;;;;25.01;67.79;100885.50;5055172;28;20488;-82
2023/09/21 09:32:21;;;;;;;7.47;3.80;;;;;;;25.13;68.15;100890.16;5001992;28;20040;-85
2023/09/21 09:34:47;;;;;;;12.45;4.72;;;;;;;25.02;67.70;100870.66;5058854;28;20025;-87
2023/09/21 09:37:16;;;;;;;21.70;5.38;;;;;;;25.05;66.99;100882.09;5058802;28;20408;-84
2023/09/21 09:39:43;;;;;;;9.57;4.18;;;;;;;25.10;67.06;100875.97;5061292;28;20025;-85
2023/09/21 09:42:11;;;;;;;13.93;4.82;;;;;;;25.21;66.90;100872.56;5060755;28;20060;-88
2023/09/21 09:44:44;;;;;;;12.38;4.05;;;;;;;25.16;65.89;100880.63;5055635;28;20067;-83
2023/09/21 09:47:14;;;;;;;13.60;3.97;;;;;;;25.23;65.83;100881.44;5053761;28;20134;-87
2023/09/21 09:49:44;;;;;;;11.35;4.15;;;;;;;25.34;66.29;100886.31;5053741;28;20116;-86
2023/09/21 09:52:13;;;;;;;7.63;3.70;;;;;;;25.46;66.14;100887.34;5054225;28;20029;-83
2023/09/21 09:54:40;;;;;;;11.23;3.47;;;;;;;25.41;64.35;100871.44;5053353;28;20036;-81
2023/09/21 09:57:13;;;;;;;4.22;3.40;;;;;;;25.49;64.26;100864.06;5052533;28;20370;-82
2023/09/21 09:59:40;;;;;;;6.00;2.95;;;;;;;25.37;64.80;100894.13;5054408;28;20033;-89
2023/09/21 10:02:14;;;;;;;6.85;3.28;;;;;;;25.42;65.37;100891.56;5053670;28;20028;-89
2023/09/21 10:04:41;;;;;;;18.83;5.43;;;;;;;25.50;65.44;100888.66;5058363;28;20037;-90
2023/09/21 10:07:06;;;;;;;7.18;3.53;;;;;;;25.49;65.37;100867.66;5059236;28;20051;-90
2023/09/21 10:09:34;;;;;;;21.42;4.43;;;;;;;25.76;64.83;100879.44;5060305;28;20088;-90
2023/09/21 10:12:03;;;;;;;8.98;3.47;;;;;;;25.65;64.00;100875.47;5059460;28;20035;-84
2023/09/21 10:14:33;;;;;;;5.40;2.95;;;;;;;25.67;63.72;100873.31;5059474;28;20032;-84
2023/09/21 10:17:04;;;;;;;20.63;3.38;;;;;;;25.80;63.69;100862.25;5040342;28;20056;-89
2023/09/21 10:19:29;;;;;;;12.73;3.90;;;;;;;25.92;64.13;100877.03;5058277;28;20040;-86
2023/09/21 10:22:21;;;;;;;9.88;3.33;;;;;;;26.03;63.66;100883.78;5059048;28;20032;-89
2023/09/21 10:24:53;;;;;;;10.30;3.60;;;;;;;26.06;63.01;100876.97;5059038;28;20420;-88
2023/09/21 10:27:24;;;;;;;4.22;3.22;;;;;;;26.10;62.93;100864.44;5058462;28;20063;-86
2023/09/21 10:30:00;;;;;;;10.40;4.53;;;;;;;25.89;62.30;100871.13;5060227;28;20578;-87
2023/09/21 10:32:41;;;;;;;32.95;7.40;;;;;;;25.73;63.20;100842.16;5064712;28;20021;-89
2023/09/21 10:35:08;;;;;;;21.63;3.35;;;;;;;25.74;62.95;100863.13;5047723;28;20035;-90
2023/09/21 10:37:34;;;;;;;5.40;3.10;;;;;;;25.78;63.36;100875.38;5061217;28;20033;-87
2023/09/21 10:40:00;;;;;;;7.07;3.45;;;;;;;25.80;63.02;100861.41;5041663;28;20076;-87
2023/09/21 10:42:33;;;;;;;7.50;3.42;;;;;;;25.95;62.25;100865.59;5058143;28;20508;-86
2023/09/21 10:45:07;;;;;;;7.03;3.45;;;;;;;26.01;61.89;100879.53;5060108;28;20075;-88
2023/09/21 10:47:35;;;;;;;13.18;3.30;;;;;;;26.05;61.49;100867.88;5040886;28;20078;-85
2023/09/21 10:50:07;;;;;;;16.58;4.00;;;;;;;26.24;61.84;100863.31;5059997;28;20024;-85
2023/09/21 10:52:33;;;;;;;7.43;3.13;;;;;;;26.35;61.63;100854.34;5065936;28;20065;-91
2023/09/21 10:54:59;;;;;;;5.20;3.42;;;;;;;26.26;61.91;100841.91;5056958;28;20025;-89
2023/09/21 10:57:26;;;;;;;19.63;4.15;;;;;;;26.42;61.61;100855.19;5030190;28;20036;-89
2023/09/21 10:59:52;;;;;;;13.27;4.45;;;;;;;26.32;61.49;100863.06;5068064;28;20059;-84
2023/09/21 11:02:22;;;;;;;13.30;3.95;;;;;;;26.29;61.09;100845.06;5071601;28;20031;-88
2023/09/21 11:04:48;;;;;;;10.70;3.50;;;;;;;26.40;61.13;100851.78;5068811;28;20029;-89
2023/09/21 11:07:17;;;;;;;22.73;4.13;;;;;;;26.36;61.78;100843.09;5065786;28;20041;-85
2023/09/21 11:09:43;;;;;;;12.85;3.90;;;;;;;26.30;61.76;100823.81;5067600;28;20032;-83
2023/09/21 11:12:13;;;;;;;264.05;33.65;;;;;;;26.44;61.34;100842.00;5066217;28;20483;-87
2023/09/21 11:14:41;;;;;;;6.65;3.25;;;;;;;26.40;61.98;100829.69;5009681;28;20045;-90
2023/09/21 11:17:11;;;;;;;12.02;3.45;;;;;;;26.42;62.32;100827.59;5074035;28;20012;-86